sensor_id;sensor_type;location;lat;lon;timestamp;pressure;altitude;pressure_sealevel;temperature;humidity
45327;BME280;31062;49.678;24.560;2022-11-09T00:00:07;98550.97;;;5.37;72.62
45327;BME280;31062;49.678;24.560;2022-11-09T00:02:54;98474.75;;;4.77;72.18
45327;BME280;31062;49.678;24.560;2022-11-09T00:05:40;98619.91;;;5.86;72.22
45327;BME280;31062;49.678;24.560;2022-11-09T00:08:26;98550.16;;;5.29;72.78
45327;BME280;31062;49.678;24.560;2022-11-09T00:11:12;98701.69;;;6.33;73.02
45327;BME280;31062;49.678;24.560;2022-11-09T00:13:57;98518.78;;;5.11;72.95
45327;BME280;31062;49.678;24.560;2022-11-09T00:16:42;98714.44;;;6.23;72.86
45327;BME280;31062;49.678;24.560;2022-11-09T00:19:28;98696.84;;;6.26;73.11
45327;BME280;31062;49.678;24.560;2022-11-09T00:22:13;98694.78;;;6.19;72.84
45327;BME280;31062;49.678;24.560;2022-11-09T00:24:59;98486.09;;;4.74;73.04
45327;BME280;31062;49.678;24.560;2022-11-09T00:27:44;98692.28;;;6.07;73.65
45327;BME280;31062;49.678;24.560;2022-11-09T00:30:30;98695.84;;;6.02;73.36
45327;BME280;31062;49.678;24.560;2022-11-09T00:33:15;98521.47;;;4.77;72.35
45327;BME280;31062;49.678;24.560;2022-11-09T00:36:04;98685.31;;;5.80;72.31
45327;BME280;31062;49.678;24.560;2022-11-09T00:38:56;98669.69;;;5.49;71.79
45327;BME280;31062;49.678;24.560;2022-11-09T00:41:41;98683.66;;;5.38;71.76
45327;BME280;31062;49.678;24.560;2022-11-09T00:44:27;98643.19;;;4.99;72.50
45327;BME280;31062;49.678;24.560;2022-11-09T00:47:13;98678.19;;;5.11;73.04
45327;BME280;31062;49.678;24.560;2022-11-09T00:49:59;98683.13;;;5.00;73.44
45327;BME280;31062;49.678;24.560;2022-11-09T00:52:45;98681.31;;;4.89;73.95
45327;BME280;31062;49.678;24.560;2022-11-09T00:55:33;98471.94;;;3.40;74.38
45327;BME280;31062;49.678;24.560;2022-11-09T00:58:18;98681.00;;;4.79;75.15
45327;BME280;31062;49.678;24.560;2022-11-09T01:01:11;98491.09;;;3.59;75.98
45327;BME280;31062;49.678;24.560;2022-11-09T01:04:00;98671.06;;;4.89;76.50
45327;BME280;31062;49.678;24.560;2022-11-09T01:06:45;98456.41;;;3.48;76.22
45327;BME280;31062;49.678;24.560;2022-11-09T01:09:31;98597.50;;;4.56;76.58
45327;BME280;31062;49.678;24.560;2022-11-09T01:12:16;98655.34;;;5.03;76.57
45327;BME280;31062;49.678;24.560;2022-11-09T01:15:02;98658.72;;;5.09;76.71
45327;BME280;31062;49.678;24.560;2022-11-09T01:17:51;98535.69;;;4.10;76.54
45327;BME280;31062;49.678;24.560;2022-11-09T01:20:41;98663.59;;;5.16;76.83
45327;BME280;31062;49.678;24.560;2022-11-09T01:23:27;98675.22;;;5.09;77.06
45327;BME280;31062;49.678;24.560;2022-11-09T01:26:14;98473.72;;;4.01;76.60
45327;BME280;31062;49.678;24.560;2022-11-09T01:29:00;98656.81;;;5.30;76.50
45327;BME280;31062;49.678;24.560;2022-11-09T01:31:46;98651.31;;;5.30;76.68
45327;BME280;31062;49.678;24.560;2022-11-09T01:34:33;98601.97;;;4.99;76.80
45327;BME280;31062;49.678;24.560;2022-11-09T01:37:20;98656.16;;;5.38;76.49
45327;BME280;31062;49.678;24.560;2022-11-09T01:40:06;98570.78;;;4.83;76.63
45327;BME280;31062;49.678;24.560;2022-11-09T01:42:52;98607.25;;;4.97;76.65
45327;BME280;31062;49.678;24.560;2022-11-09T01:45:37;98487.66;;;4.30;76.30
45327;BME280;31062;49.678;24.560;2022-11-09T01:54:21;98649.41;;;5.25;76.63
45327;BME280;31062;49.678;24.560;2022-11-09T01:57:12;98648.66;;;5.51;76.61
45327;BME280;31062;49.678;24.560;2022-11-09T02:00:07;98515.25;;;4.64;76.59
45327;BME280;31062;49.678;24.560;2022-11-09T02:03:11;98646.75;;;5.59;76.58
45327;BME280;31062;49.678;24.560;2022-11-09T02:06:03;98646.00;;;5.59;76.56
45327;BME280;31062;49.678;24.560;2022-11-09T02:08:53;98648.31;;;5.55;76.68
45327;BME280;31062;49.678;24.560;2022-11-09T02:11:42;98602.78;;;5.20;76.54
45327;BME280;31062;49.678;24.560;2022-11-09T02:14:29;98665.78;;;5.57;76.45
45327;BME280;31062;49.678;24.560;2022-11-09T02:17:17;98610.94;;;5.25;75.91
45327;BME280;31062;49.678;24.560;2022-11-09T02:20:11;98504.03;;;4.48;75.71
45327;BME280;31062;49.678;24.560;2022-11-09T02:22:59;98467.28;;;4.12;74.60
45327;BME280;31062;49.678;24.560;2022-11-09T02:26:13;98660.50;;;5.33;74.45
45327;BME280;31062;49.678;24.560;2022-11-09T02:29:02;98510.56;;;4.19;74.06
45327;BME280;31062;49.678;24.560;2022-11-09T02:31:55;98670.78;;;5.06;74.14
45327;BME280;31062;49.678;24.560;2022-11-09T02:34:42;98665.91;;;4.99;74.25
45327;BME280;31062;49.678;24.560;2022-11-09T02:37:31;98657.44;;;4.97;75.01
45327;BME280;31062;49.678;24.560;2022-11-09T02:40:27;98668.44;;;4.97;75.16
45327;BME280;31062;49.678;24.560;2022-11-09T02:43:15;98566.19;;;4.20;75.67
45327;BME280;31062;49.678;24.560;2022-11-09T02:46:03;98659.34;;;5.02;76.10
45327;BME280;31062;49.678;24.560;2022-11-09T02:48:48;98334.34;;;2.83;75.73
45327;BME280;31062;49.678;24.560;2022-11-09T02:51:36;98570.75;;;4.30;76.53
45327;BME280;31062;49.678;24.560;2022-11-09T02:54:21;98640.00;;;4.81;76.96
45327;BME280;31062;49.678;24.560;2022-11-09T02:57:09;98445.44;;;3.48;77.14
45327;BME280;31062;49.678;24.560;2022-11-09T02:59:55;98590.19;;;4.32;77.86
45327;BME280;31062;49.678;24.560;2022-11-09T03:02:41;98649.38;;;4.73;78.64
45327;BME280;31062;49.678;24.560;2022-11-09T03:05:27;98659.97;;;4.69;79.42
45327;BME280;31062;49.678;24.560;2022-11-09T03:08:12;98495.00;;;3.50;79.46
45327;BME280;31062;49.678;24.560;2022-11-09T03:10:58;98656.16;;;4.72;79.60
45327;BME280;31062;49.678;24.560;2022-11-09T03:13:44;98659.34;;;4.76;79.75
45327;BME280;31062;49.678;24.560;2022-11-09T03:16:31;98660.72;;;4.82;79.40
45327;BME280;31062;49.678;24.560;2022-11-09T03:19:17;98656.59;;;4.89;79.39
45327;BME280;31062;49.678;24.560;2022-11-09T03:22:05;98661.47;;;4.96;78.80
45327;BME280;31062;49.678;24.560;2022-11-09T03:24:50;98660.94;;;4.98;78.71
45327;BME280;31062;49.678;24.560;2022-11-09T03:27:37;98662.53;;;4.93;78.57
45327;BME280;31062;49.678;24.560;2022-11-09T03:30:23;98440.59;;;3.54;78.47
45327;BME280;31062;49.678;24.560;2022-11-09T03:33:08;98538.44;;;4.23;78.39
45327;BME280;31062;49.678;24.560;2022-11-09T03:35:55;98575.13;;;4.52;78.57
45327;BME280;31062;49.678;24.560;2022-11-09T03:38:41;98657.13;;;5.01;78.59
45327;BME280;31062;49.678;24.560;2022-11-09T03:41:27;98627.19;;;4.58;78.40
45327;BME280;31062;49.678;24.560;2022-11-09T03:44:12;98637.13;;;4.74;78.63
45327;BME280;31062;49.678;24.560;2022-11-09T03:46:58;98659.66;;;4.85;78.67
45327;BME280;31062;49.678;24.560;2022-11-09T03:49:43;98652.13;;;4.73;79.26
45327;BME280;31062;49.678;24.560;2022-11-09T03:52:29;98488.81;;;3.63;79.08
45327;BME280;31062;49.678;24.560;2022-11-09T03:55:14;98606.88;;;4.47;79.42
45327;BME280;31062;49.678;24.560;2022-11-09T03:58:00;98526.44;;;3.94;79.38
45327;BME280;31062;49.678;24.560;2022-11-09T04:00:46;98644.31;;;4.77;79.15
45327;BME280;31062;49.678;24.560;2022-11-09T04:03:31;98640.63;;;4.74;79.35
45327;BME280;31062;49.678;24.560;2022-11-09T04:06:17;98633.31;;;4.77;79.27
45327;BME280;31062;49.678;24.560;2022-11-09T04:09:03;98434.25;;;3.46;78.97
45327;BME280;31062;49.678;24.560;2022-11-09T04:11:49;98640.53;;;4.93;79.30
45327;BME280;31062;49.678;24.560;2022-11-09T04:14:35;98647.09;;;4.90;79.22
45327;BME280;31062;49.678;24.560;2022-11-09T04:17:20;98449.44;;;3.47;79.55
45327;BME280;31062;49.678;24.560;2022-11-09T04:20:07;98484.28;;;3.65;79.69
45327;BME280;31062;49.678;24.560;2022-11-09T04:22:59;98533.25;;;3.75;80.00
45327;BME280;31062;49.678;24.560;2022-11-09T04:25:45;98435.47;;;3.32;80.17
45327;BME280;31062;49.678;24.560;2022-11-09T04:28:35;98610.97;;;4.41;79.98
45327;BME280;31062;49.678;24.560;2022-11-09T04:31:20;98640.94;;;4.71;80.11
45327;BME280;31062;49.678;24.560;2022-11-09T04:34:12;98579.59;;;4.23;79.57
45327;BME280;31062;49.678;24.560;2022-11-09T04:36:59;98457.59;;;3.34;78.65
45327;BME280;31062;49.678;24.560;2022-11-09T04:39:44;98644.31;;;4.64;77.93
45327;BME280;31062;49.678;24.560;2022-11-09T04:42:30;98420.91;;;3.05;77.62
45327;BME280;31062;49.678;24.560;2022-11-09T04:45:16;98544.06;;;3.86;77.10
45327;BME280;31062;49.678;24.560;2022-11-09T04:48:03;98592.03;;;4.11;77.31
45327;BME280;31062;49.678;24.560;2022-11-09T04:50:50;98642.38;;;4.45;77.27
45327;BME280;31062;49.678;24.560;2022-11-09T04:53:36;98645.50;;;4.36;76.99
45327;BME280;31062;49.678;24.560;2022-11-09T04:56:22;98427.22;;;2.81;76.96
45327;BME280;31062;49.678;24.560;2022-11-09T04:59:08;98425.06;;;2.74;76.69
45327;BME280;31062;49.678;24.560;2022-11-09T05:01:53;98428.19;;;2.65;77.16
45327;BME280;31062;49.678;24.560;2022-11-09T05:04:39;98622.44;;;3.94;77.59
45327;BME280;31062;49.678;24.560;2022-11-09T05:07:25;98631.66;;;3.97;77.71
45327;BME280;31062;49.678;24.560;2022-11-09T05:10:11;98573.28;;;3.46;77.07
45327;BME280;31062;49.678;24.560;2022-11-09T05:13:03;98451.09;;;2.62;77.21
45327;BME280;31062;49.678;24.560;2022-11-09T05:15:49;98637.47;;;3.75;77.71
45327;BME280;31062;49.678;24.560;2022-11-09T05:18:35;98430.97;;;2.41;77.31
45327;BME280;31062;49.678;24.560;2022-11-09T05:21:20;98563.22;;;2.98;77.59
45327;BME280;31062;49.678;24.560;2022-11-09T05:24:06;98644.41;;;3.76;78.03
45327;BME280;31062;49.678;24.560;2022-11-09T05:26:52;98648.13;;;3.78;78.40
45327;BME280;31062;49.678;24.560;2022-11-09T05:29:38;98664.72;;;3.86;78.61
45327;BME280;31062;49.678;24.560;2022-11-09T05:32:23;98481.31;;;2.75;79.08
45327;BME280;31062;49.678;24.560;2022-11-09T05:35:09;98595.59;;;3.37;79.28
45327;BME280;31062;49.678;24.560;2022-11-09T05:37:54;98454.50;;;2.68;79.22
45327;BME280;31062;49.678;24.560;2022-11-09T05:40:40;98572.09;;;3.41;79.37
45327;BME280;31062;49.678;24.560;2022-11-09T05:43:25;98621.69;;;3.94;79.67
45327;BME280;31062;49.678;24.560;2022-11-09T05:46:13;98657.06;;;4.16;79.88
45327;BME280;31062;49.678;24.560;2022-11-09T05:48:59;98458.59;;;2.80;79.76
45327;BME280;31062;49.678;24.560;2022-11-09T05:51:45;98463.28;;;2.85;79.78
45327;BME280;31062;49.678;24.560;2022-11-09T05:54:30;98611.28;;;3.92;80.02
45327;BME280;31062;49.678;24.560;2022-11-09T05:57:16;98611.97;;;3.80;80.11
45327;BME280;31062;49.678;24.560;2022-11-09T06:00:03;98696.72;;;4.34;80.67
45327;BME280;31062;49.678;24.560;2022-11-09T06:03:01;98483.47;;;3.01;80.16
45327;BME280;31062;49.678;24.560;2022-11-09T06:05:47;98658.56;;;4.30;80.84
45327;BME280;31062;49.678;24.560;2022-11-09T06:08:33;98654.28;;;4.35;80.89
45327;BME280;31062;49.678;24.560;2022-11-09T06:11:19;98462.75;;;3.06;80.84
45327;BME280;31062;49.678;24.560;2022-11-09T06:14:09;98621.94;;;4.28;80.58
45327;BME280;31062;49.678;24.560;2022-11-09T06:16:54;98669.66;;;4.57;80.94
45327;BME280;31062;49.678;24.560;2022-11-09T06:19:40;98620.59;;;4.34;81.01
45327;BME280;31062;49.678;24.560;2022-11-09T06:22:26;98477.16;;;3.44;80.55
45327;BME280;31062;49.678;24.560;2022-11-09T06:25:12;98670.78;;;4.93;80.19
45327;BME280;31062;49.678;24.560;2022-11-09T06:27:58;98667.28;;;5.06;79.57
45327;BME280;31062;49.678;24.560;2022-11-09T06:30:44;98668.88;;;5.27;78.83
45327;BME280;31062;49.678;24.560;2022-11-09T06:33:31;98677.53;;;5.45;78.20
45327;BME280;31062;49.678;24.560;2022-11-09T06:36:17;98682.06;;;5.55;77.72
45327;BME280;31062;49.678;24.560;2022-11-09T06:39:03;98673.56;;;5.80;76.83
45327;BME280;31062;49.678;24.560;2022-11-09T06:41:48;98543.31;;;5.09;76.37
45327;BME280;31062;49.678;24.560;2022-11-09T06:44:34;98673.19;;;6.09;76.22
45327;BME280;31062;49.678;24.560;2022-11-09T06:47:19;98669.53;;;6.28;76.00
45327;BME280;31062;49.678;24.560;2022-11-09T06:50:05;98598.25;;;6.03;76.04
45327;BME280;31062;49.678;24.560;2022-11-09T06:52:55;98531.03;;;5.78;74.55
45327;BME280;31062;49.678;24.560;2022-11-09T06:55:42;98636.75;;;6.58;75.29
45327;BME280;31062;49.678;24.560;2022-11-09T06:58:35;98471.53;;;5.67;74.62
45327;BME280;31062;49.678;24.560;2022-11-09T07:01:24;98570.03;;;6.52;73.80
45327;BME280;31062;49.678;24.560;2022-11-09T07:04:13;98564.81;;;6.41;74.14
45327;BME280;31062;49.678;24.560;2022-11-09T07:06:58;98462.13;;;6.04;73.88
45327;BME280;31062;49.678;24.560;2022-11-09T07:09:44;98483.13;;;6.15;73.92
45327;BME280;31062;49.678;24.560;2022-11-09T07:12:31;98633.47;;;7.52;74.19
45327;BME280;31062;49.678;24.560;2022-11-09T07:15:19;98463.16;;;6.50;73.30
45327;BME280;31062;49.678;24.560;2022-11-09T07:18:06;98599.66;;;7.59;73.68
45327;BME280;31062;49.678;24.560;2022-11-09T07:20:53;98613.66;;;7.69;73.35
45327;BME280;31062;49.678;24.560;2022-11-09T07:23:40;98651.44;;;7.89;73.44
45327;BME280;31062;49.678;24.560;2022-11-09T07:26:26;98660.09;;;7.86;73.22
45327;BME280;31062;49.678;24.560;2022-11-09T07:29:12;98591.50;;;7.46;73.59
45327;BME280;31062;49.678;24.560;2022-11-09T07:31:59;98639.09;;;7.83;74.25
45327;BME280;31062;49.678;24.560;2022-11-09T07:34:44;98477.66;;;6.87;73.95
45327;BME280;31062;49.678;24.560;2022-11-09T07:37:32;98651.31;;;8.10;74.89
45327;BME280;31062;49.678;24.560;2022-11-09T07:40:18;98681.53;;;8.23;74.57
45327;BME280;31062;49.678;24.560;2022-11-09T07:43:04;98658.03;;;8.37;74.61
45327;BME280;31062;49.678;24.560;2022-11-09T07:45:51;98655.25;;;8.52;73.95
45327;BME280;31062;49.678;24.560;2022-11-09T07:48:37;98609.03;;;8.30;74.19
45327;BME280;31062;49.678;24.560;2022-11-09T07:51:23;98680.69;;;8.66;74.93
45327;BME280;31062;49.678;24.560;2022-11-09T07:54:10;98632.25;;;8.57;74.42
45327;BME280;31062;49.678;24.560;2022-11-09T07:56:57;98597.63;;;8.49;74.03
45327;BME280;31062;49.678;24.560;2022-11-09T07:59:44;98613.25;;;8.77;74.99
45327;BME280;31062;49.678;24.560;2022-11-09T08:02:29;98471.63;;;7.93;74.28
45327;BME280;31062;49.678;24.560;2022-11-09T08:05:16;98658.00;;;9.21;73.45
45327;BME280;31062;49.678;24.560;2022-11-09T08:08:05;98620.75;;;9.07;73.34
45327;BME280;31062;49.678;24.560;2022-11-09T08:10:51;98638.56;;;9.36;73.79
45327;BME280;31062;49.678;24.560;2022-11-09T08:13:38;98596.03;;;9.16;73.69
45327;BME280;31062;49.678;24.560;2022-11-09T08:16:24;98644.94;;;9.61;73.82
45327;BME280;31062;49.678;24.560;2022-11-09T08:19:10;98639.75;;;9.65;72.64
45327;BME280;31062;49.678;24.560;2022-11-09T08:21:56;98628.69;;;9.65;73.41
45327;BME280;31062;49.678;24.560;2022-11-09T08:24:44;98630.53;;;9.70;72.49
45327;BME280;31062;49.678;24.560;2022-11-09T08:27:30;98644.13;;;9.83;72.91
45327;BME280;31062;49.678;24.560;2022-11-09T08:30:20;98639.69;;;9.88;73.13
45327;BME280;31062;49.678;24.560;2022-11-09T08:33:05;98480.75;;;8.79;72.90
45327;BME280;31062;49.678;24.560;2022-11-09T08:35:51;98603.53;;;9.78;73.22
45327;BME280;31062;49.678;24.560;2022-11-09T08:38:38;98637.75;;;10.06;73.28
45327;BME280;31062;49.678;24.560;2022-11-09T08:41:24;98586.19;;;9.78;72.91
45327;BME280;31062;49.678;24.560;2022-11-09T08:44:10;98641.00;;;10.19;73.72
45327;BME280;31062;49.678;24.560;2022-11-09T08:46:56;98496.69;;;9.43;72.91
45327;BME280;31062;49.678;24.560;2022-11-09T08:49:41;98572.38;;;10.03;71.94
45327;BME280;31062;49.678;24.560;2022-11-09T08:52:28;98622.03;;;10.41;71.71
45327;BME280;31062;49.678;24.560;2022-11-09T08:55:13;98620.41;;;10.55;71.47
45327;BME280;31062;49.678;24.560;2022-11-09T08:58:00;98624.06;;;10.65;68.61
45327;BME280;31062;49.678;24.560;2022-11-09T09:00:46;98614.75;;;10.70;69.62
45327;BME280;31062;49.678;24.560;2022-11-09T09:03:31;98446.59;;;9.64;69.52
45327;BME280;31062;49.678;24.560;2022-11-09T09:06:17;98597.41;;;10.87;68.71
45327;BME280;31062;49.678;24.560;2022-11-09T09:09:03;98612.34;;;11.09;68.41
45327;BME280;31062;49.678;24.560;2022-11-09T09:11:49;98442.75;;;10.01;67.26
45327;BME280;31062;49.678;24.560;2022-11-09T09:14:35;98607.53;;;11.26;67.91
45327;BME280;31062;49.678;24.560;2022-11-09T09:17:21;98605.97;;;11.33;67.85
45327;BME280;31062;49.678;24.560;2022-11-09T09:20:07;98594.38;;;11.44;68.06
45327;BME280;31062;49.678;24.560;2022-11-09T09:22:56;98463.31;;;10.57;67.30
45327;BME280;31062;49.678;24.560;2022-11-09T09:25:42;98433.56;;;10.41;66.78
45327;BME280;31062;49.678;24.560;2022-11-09T09:28:28;98530.75;;;11.12;65.85
45327;BME280;31062;49.678;24.560;2022-11-09T09:31:14;98581.97;;;11.45;66.04
45327;BME280;31062;49.678;24.560;2022-11-09T09:34:03;98604.81;;;11.70;66.21
45327;BME280;31062;49.678;24.560;2022-11-09T09:36:51;98427.84;;;10.56;66.29
45327;BME280;31062;49.678;24.560;2022-11-09T09:39:37;98604.72;;;11.78;66.29
45327;BME280;31062;49.678;24.560;2022-11-09T09:42:30;98542.53;;;11.46;66.30
45327;BME280;31062;49.678;24.560;2022-11-09T09:45:22;98603.78;;;11.93;66.31
45327;BME280;31062;49.678;24.560;2022-11-09T09:51:05;98435.16;;;10.95;65.97
45327;BME280;31062;49.678;24.560;2022-11-09T09:53:59;98548.34;;;11.85;65.75
45327;BME280;31062;49.678;24.560;2022-11-09T09:56:49;98419.72;;;11.02;66.47
45327;BME280;31062;49.678;24.560;2022-11-09T09:59:40;98595.47;;;12.29;65.68
45327;BME280;31062;49.678;24.560;2022-11-09T10:02:29;98584.25;;;12.37;65.40
45327;BME280;31062;49.678;24.560;2022-11-09T10:05:16;98582.97;;;12.47;64.82
45327;BME280;31062;49.678;24.560;2022-11-09T10:08:12;98583.25;;;12.51;64.66
45327;BME280;31062;49.678;24.560;2022-11-09T10:11:22;98569.50;;;12.53;64.67
45327;BME280;31062;49.678;24.560;2022-11-09T10:26:22;98558.31;;;12.80;63.57
45327;BME280;31062;49.678;24.560;2022-11-09T10:29:26;98397.97;;;11.71;62.94
45327;BME280;31062;49.678;24.560;2022-11-09T10:37:58;98549.38;;;13.01;62.50
45327;BME280;31062;49.678;24.560;2022-11-09T10:40:53;98581.44;;;13.12;62.85
45327;BME280;31062;49.678;24.560;2022-11-09T10:44:00;98535.34;;;13.18;62.02
45327;BME280;31062;49.678;24.560;2022-11-09T10:47:17;98539.88;;;13.23;61.03
45327;BME280;31062;49.678;24.560;2022-11-09T10:54:17;98533.28;;;13.28;61.17
45327;BME280;31062;49.678;24.560;2022-11-09T10:57:23;98559.06;;;13.38;61.34
45327;BME280;31062;49.678;24.560;2022-11-09T11:00:28;98525.81;;;13.40;60.81
45327;BME280;31062;49.678;24.560;2022-11-09T11:03:34;98536.91;;;13.50;60.87
45327;BME280;31062;49.678;24.560;2022-11-09T11:06:39;98521.69;;;13.51;61.25
45327;BME280;31062;49.678;24.560;2022-11-09T11:09:45;98521.50;;;13.59;61.24
45327;BME280;31062;49.678;24.560;2022-11-09T11:13:20;98525.00;;;13.69;60.25
45327;BME280;31062;49.678;24.560;2022-11-09T11:16:33;98526.47;;;13.70;59.87
45327;BME280;31062;49.678;24.560;2022-11-09T11:19:40;98473.94;;;13.26;59.86
45327;BME280;31062;49.678;24.560;2022-11-09T11:22:44;98509.56;;;13.77;59.67
45327;BME280;31062;49.678;24.560;2022-11-09T11:29:03;98428.94;;;13.29;59.61
45327;BME280;31062;49.678;24.560;2022-11-09T11:32:16;98489.84;;;13.64;60.21
45327;BME280;31062;49.678;24.560;2022-11-09T11:35:31;98509.34;;;14.04;59.10
45327;BME280;31062;49.678;24.560;2022-11-09T11:38:42;98538.94;;;14.09;58.84
45327;BME280;31062;49.678;24.560;2022-11-09T11:42:10;98509.59;;;14.08;57.31
45327;BME280;31062;49.678;24.560;2022-11-09T11:45:28;98520.44;;;14.14;57.86
45327;BME280;31062;49.678;24.560;2022-11-09T11:48:54;98508.84;;;14.17;57.61
45327;BME280;31062;49.678;24.560;2022-11-09T11:52:16;98529.34;;;14.22;56.58
45327;BME280;31062;49.678;24.560;2022-11-09T12:16:09;98498.91;;;14.36;55.84
45327;BME280;31062;49.678;24.560;2022-11-09T12:22:50;98479.38;;;14.36;55.80
45327;BME280;31062;49.678;24.560;2022-11-09T12:29:31;98494.16;;;14.48;55.18
45327;BME280;31062;49.678;24.560;2022-11-09T12:32:54;98497.06;;;14.50;55.27
45327;BME280;31062;49.678;24.560;2022-11-09T12:36:06;98498.69;;;14.53;54.98
45327;BME280;31062;49.678;24.560;2022-11-09T12:43:28;98333.94;;;13.44;55.35
45327;BME280;31062;49.678;24.560;2022-11-09T12:46:12;98496.63;;;14.53;55.53
45327;BME280;31062;49.678;24.560;2022-11-09T12:49:39;98460.31;;;14.32;55.24
45327;BME280;31062;49.678;24.560;2022-11-09T12:52:46;98489.34;;;14.60;55.84
45327;BME280;31062;49.678;24.560;2022-11-09T12:59:21;98526.03;;;14.66;55.31
45327;BME280;31062;49.678;24.560;2022-11-09T13:02:39;98450.16;;;14.37;55.16
45327;BME280;31062;49.678;24.560;2022-11-09T13:05:45;98447.53;;;14.39;55.29
45327;BME280;31062;49.678;24.560;2022-11-09T13:12:45;98482.59;;;14.63;55.99
45327;BME280;31062;49.678;24.560;2022-11-09T13:16:11;98448.72;;;14.36;56.55
45327;BME280;31062;49.678;24.560;2022-11-09T13:25:50;98483.00;;;14.48;56.51
45327;BME280;31062;49.678;24.560;2022-11-09T13:42:30;98466.47;;;14.30;56.70
45327;BME280;31062;49.678;24.560;2022-11-09T13:45:58;98512.34;;;14.49;56.72
45327;BME280;31062;49.678;24.560;2022-11-09T13:52:56;98482.19;;;14.36;56.67
45327;BME280;31062;49.678;24.560;2022-11-09T13:59:46;98455.69;;;13.94;56.50
45327;BME280;31062;49.678;24.560;2022-11-09T14:03:01;98486.00;;;14.30;56.00
45327;BME280;31062;49.678;24.560;2022-11-09T14:06:10;98383.16;;;13.52;56.21
45327;BME280;31062;49.678;24.560;2022-11-09T14:09:18;98490.75;;;14.18;56.25
45327;BME280;31062;49.678;24.560;2022-11-09T14:16:36;98493.13;;;14.12;56.69
45327;BME280;31062;49.678;24.560;2022-11-09T14:23:19;98466.00;;;13.82;56.73
45327;BME280;31062;49.678;24.560;2022-11-09T14:26:25;98484.47;;;13.87;56.69
45327;BME280;31062;49.678;24.560;2022-11-09T14:29:30;98484.47;;;13.87;56.88
45327;BME280;31062;49.678;24.560;2022-11-09T14:32:36;98343.63;;;12.84;57.07
45327;BME280;31062;49.678;24.560;2022-11-09T14:35:41;98358.56;;;12.88;57.08
45327;BME280;31062;49.678;24.560;2022-11-09T14:38:46;98353.59;;;12.87;57.17
45327;BME280;31062;49.678;24.560;2022-11-09T14:41:51;98472.09;;;13.59;57.41
45327;BME280;31062;49.678;24.560;2022-11-09T14:44:58;98501.53;;;13.72;57.42
45327;BME280;31062;49.678;24.560;2022-11-09T14:48:03;98363.88;;;12.75;57.67
45327;BME280;31062;49.678;24.560;2022-11-09T14:51:11;98407.47;;;12.91;57.63
45327;BME280;31062;49.678;24.560;2022-11-09T14:54:22;98500.25;;;13.54;57.58
45327;BME280;31062;49.678;24.560;2022-11-09T14:57:28;98503.97;;;13.46;58.05
45327;BME280;31062;49.678;24.560;2022-11-09T15:00:34;98498.53;;;13.39;58.00
45327;BME280;31062;49.678;24.560;2022-11-09T15:03:44;98503.09;;;13.34;58.24
45327;BME280;31062;49.678;24.560;2022-11-09T15:06:58;98510.72;;;13.24;58.39
45327;BME280;31062;49.678;24.560;2022-11-09T15:10:07;98382.47;;;12.43;58.84
45327;BME280;31062;49.678;24.560;2022-11-09T15:13:39;98504.72;;;13.18;58.81
45327;BME280;31062;49.678;24.560;2022-11-09T15:16:48;98514.94;;;13.06;58.73
45327;BME280;31062;49.678;24.560;2022-11-09T15:19:59;98498.13;;;13.04;59.49
45327;BME280;31062;49.678;24.560;2022-11-09T15:23:13;98494.59;;;12.94;59.53
45327;BME280;31062;49.678;24.560;2022-11-09T15:26:36;98499.59;;;12.86;59.63
45327;BME280;31062;49.678;24.560;2022-11-09T15:29:42;98505.75;;;12.75;59.72
45327;BME280;31062;49.678;24.560;2022-11-09T15:32:46;98469.53;;;12.26;60.52
45327;BME280;31062;49.678;24.560;2022-11-09T15:42:13;98345.81;;;11.33;60.99
45327;BME280;31062;49.678;24.560;2022-11-09T15:45:19;98517.25;;;12.42;61.31
45327;BME280;31062;49.678;24.560;2022-11-09T15:48:23;98446.16;;;11.83;61.57
45327;BME280;31062;49.678;24.560;2022-11-09T15:51:28;98277.41;;;10.55;61.44
45327;BME280;31062;49.678;24.560;2022-11-09T15:54:36;98522.16;;;12.24;61.78
45327;BME280;31062;49.678;24.560;2022-11-09T15:57:49;98479.38;;;11.91;61.99
45327;BME280;31062;49.678;24.560;2022-11-09T16:00:57;98530.03;;;12.09;62.72
45327;BME280;31062;49.678;24.560;2022-11-09T16:04:09;98521.69;;;12.09;62.50
45327;BME280;31062;49.678;24.560;2022-11-09T16:07:19;98533.19;;;11.96;62.88
45327;BME280;31062;49.678;24.560;2022-11-09T16:10:24;98416.44;;;11.13;63.16
45327;BME280;31062;49.678;24.560;2022-11-09T16:13:34;98488.84;;;11.61;63.02
45327;BME280;31062;49.678;24.560;2022-11-09T16:16:39;98535.75;;;11.84;63.44
45327;BME280;31062;49.678;24.560;2022-11-09T16:19:43;98531.47;;;11.73;63.58
45327;BME280;31062;49.678;24.560;2022-11-09T16:22:48;98490.22;;;11.43;63.86
45327;BME280;31062;49.678;24.560;2022-11-09T16:25:52;98505.03;;;11.55;63.87
45327;BME280;31062;49.678;24.560;2022-11-09T16:28:58;98453.06;;;11.12;64.02
45327;BME280;31062;49.678;24.560;2022-11-09T16:32:03;98520.53;;;11.58;64.14
45327;BME280;31062;49.678;24.560;2022-11-09T16:35:09;98442.16;;;10.96;64.26
45327;BME280;31062;49.678;24.560;2022-11-09T16:38:36;98378.63;;;10.47;63.96
45327;BME280;31062;49.678;24.560;2022-11-09T16:41:46;98401.59;;;10.57;64.08
45327;BME280;31062;49.678;24.560;2022-11-09T16:44:52;98546.94;;;11.50;64.13
45327;BME280;31062;49.678;24.560;2022-11-09T16:48:02;98456.69;;;10.87;64.30
45327;BME280;31062;49.678;24.560;2022-11-09T16:51:07;98498.94;;;11.13;64.64
45327;BME280;31062;49.678;24.560;2022-11-09T16:54:12;98510.66;;;11.21;64.79
45327;BME280;31062;49.678;24.560;2022-11-09T16:57:18;98540.19;;;11.43;64.59
45327;BME280;31062;49.678;24.560;2022-11-09T17:00:23;98548.50;;;11.43;64.73
45327;BME280;31062;49.678;24.560;2022-11-09T17:03:48;98379.28;;;10.20;64.57
45327;BME280;31062;49.678;24.560;2022-11-09T17:06:53;98533.34;;;11.27;64.77
45327;BME280;31062;49.678;24.560;2022-11-09T17:09:58;98554.31;;;11.20;64.85